createdAt,value
2018-12-20T00:00:43.181Z,17.78
2018-12-20T00:01:43.450Z,17.77
2018-12-20T00:02:43.102Z,17.77
2018-12-20T00:03:43.892Z,17.76
2018-12-20T00:04:44.617Z,17.76
2018-12-20T00:05:43.785Z,17.75
2018-12-20T00:06:43.488Z,17.75
2018-12-20T00:07:43.322Z,17.76
2018-12-20T00:08:43.311Z,17.74
2018-12-20T00:09:43.540Z,17.74
2018-12-20T00:10:43.310Z,17.73
2018-12-20T00:11:42.998Z,17.73
2018-12-20T00:12:43.959Z,17.73
2018-12-20T00:13:43.717Z,17.72
2018-12-20T00:14:43.407Z,17.72
2018-12-20T00:15:43.551Z,17.71
2018-12-20T00:16:43.277Z,17.71
2018-12-20T00:17:43.306Z,17.7
2018-12-20T00:18:43.182Z,17.7
2018-12-20T00:19:43.423Z,17.68
2018-12-20T00:20:43.532Z,17.68
2018-12-20T00:21:43.204Z,17.67
2018-12-20T00:22:43.213Z,17.67
2018-12-20T00:23:43.626Z,17.68
2018-12-20T00:24:44.044Z,17.68
2018-12-20T00:25:43.432Z,17.67
2018-12-20T00:26:43.630Z,17.67
2018-12-20T00:27:43.230Z,17.67
2018-12-20T00:28:43.541Z,17.66
2018-12-20T00:29:43.471Z,17.65
2018-12-20T00:30:43.292Z,17.65
2018-12-20T00:31:43.096Z,17.65
2018-12-20T00:32:43.269Z,17.65
2018-12-20T00:33:43.753Z,17.65
2018-12-20T00:34:43.513Z,17.64
2018-12-20T00:35:43.659Z,17.64
2018-12-20T00:36:43.100Z,17.63
2018-12-20T00:37:43.410Z,17.62
2018-12-20T00:38:43.295Z,17.62
2018-12-20T00:39:43.414Z,17.62
2018-12-20T00:40:44.086Z,17.62
2018-12-20T00:41:43.557Z,17.61
2018-12-20T00:42:43.174Z,17.61
2018-12-20T00:43:43.288Z,17.61
2018-12-20T00:44:43.471Z,17.6
2018-12-20T00:45:43.210Z,17.61
2018-12-20T00:46:43.136Z,17.6
2018-12-20T00:47:43.815Z,17.6
2018-12-20T00:48:43.786Z,17.59
2018-12-20T00:49:43.590Z,17.58
2018-12-20T00:50:43.620Z,17.57
2018-12-20T00:51:43.449Z,17.57
2018-12-20T00:52:43.242Z,17.57
2018-12-20T00:53:43.332Z,17.57
2018-12-20T00:54:43.342Z,17.58
2018-12-20T00:55:43.735Z,17.56
2018-12-20T00:56:43.381Z,17.56
2018-12-20T00:57:44.200Z,17.56
2018-12-20T00:58:43.550Z,17.55
2018-12-20T00:59:43.588Z,17.54
2018-12-20T01:00:43.203Z,17.54
2018-12-20T01:01:43.237Z,17.54
2018-12-20T01:02:44.001Z,17.54
2018-12-20T01:03:43.281Z,17.54
2018-12-20T01:04:43.534Z,17.54
2018-12-20T01:05:43.475Z,17.53
2018-12-20T01:06:43.629Z,17.53
2018-12-20T01:07:43.252Z,17.53
2018-12-20T01:08:43.747Z,17.52
2018-12-20T01:09:43.453Z,17.51
2018-12-20T01:10:43.231Z,17.51
2018-12-20T01:11:43.952Z,17.51
2018-12-20T01:12:43.189Z,17.51
2018-12-20T01:13:43.351Z,17.5
2018-12-20T01:14:46.246Z,17.51
2018-12-20T01:15:43.488Z,17.5
2018-12-20T01:16:43.106Z,17.5
2018-12-20T01:17:42.928Z,17.5
2018-12-20T01:18:43.325Z,17.5
2018-12-20T01:19:43.192Z,17.49
2018-12-20T01:20:43.242Z,17.49
2018-12-20T01:21:43.243Z,17.49
2018-12-20T01:22:43.314Z,17.48
2018-12-20T01:23:43.373Z,17.48
2018-12-20T01:24:43.194Z,17.48
2018-12-20T01:25:43.463Z,17.48
2018-12-20T01:26:43.408Z,17.47
2018-12-20T01:27:43.367Z,17.47
2018-12-20T01:28:43.717Z,17.47
2018-12-20T01:29:43.506Z,17.47
2018-12-20T01:30:43.542Z,17.47
2018-12-20T01:31:43.400Z,17.46
2018-12-20T01:32:43.266Z,17.46
2018-12-20T01:33:43.243Z,17.45
2018-12-20T01:34:43.338Z,17.45
2018-12-20T01:35:43.816Z,17.45
2018-12-20T01:36:43.753Z,17.44
2018-12-20T01:37:43.398Z,17.44
2018-12-20T01:38:43.782Z,17.44
2018-12-20T01:39:43.466Z,17.43
2018-12-20T01:40:43.264Z,17.43
2018-12-20T01:41:43.144Z,17.43
2018-12-20T01:42:43.308Z,17.42
2018-12-20T01:43:43.509Z,17.42
2018-12-20T01:44:43.748Z,17.42
2018-12-20T01:45:43.683Z,17.42
2018-12-20T01:46:43.793Z,17.42
2018-12-20T01:47:43.703Z,17.42
2018-12-20T01:48:43.197Z,17.42
2018-12-20T01:49:43.917Z,17.4
2018-12-20T01:50:43.111Z,17.4
2018-12-20T01:51:43.438Z,17.41
2018-12-20T01:52:43.634Z,17.4
2018-12-20T01:53:43.639Z,17.4
2018-12-20T01:54:43.264Z,17.41
2018-12-20T01:55:43.571Z,17.4
2018-12-20T01:56:43.102Z,17.39
2018-12-20T01:57:42.948Z,17.39
2018-12-20T01:58:43.886Z,17.39
2018-12-20T01:59:43.598Z,17.38
2018-12-20T02:00:43.009Z,17.39
2018-12-20T02:01:43.718Z,17.38
2018-12-20T02:02:43.655Z,17.37
2018-12-20T02:03:43.384Z,17.36
2018-12-20T02:04:43.536Z,17.36
2018-12-20T02:05:43.660Z,17.37
2018-12-20T02:06:43.620Z,17.36
2018-12-20T02:07:43.307Z,17.36
2018-12-20T02:08:43.220Z,17.37
2018-12-20T02:09:43.567Z,17.36
2018-12-20T02:10:43.016Z,17.36
2018-12-20T02:11:43.605Z,17.35
2018-12-20T02:12:43.906Z,17.35
2018-12-20T02:13:43.575Z,17.36
2018-12-20T02:14:43.086Z,17.34
2018-12-20T02:15:43.305Z,17.35
2018-12-20T02:16:44.273Z,17.35
2018-12-20T02:17:43.630Z,17.35
2018-12-20T02:18:43.151Z,17.34
2018-12-20T02:19:43.180Z,17.33
2018-12-20T02:20:43.527Z,17.32
2018-12-20T02:21:43.695Z,17.33
2018-12-20T02:22:43.215Z,17.33
2018-12-20T02:23:43.649Z,17.33
2018-12-20T02:24:43.963Z,17.32
2018-12-20T02:25:43.969Z,17.32
2018-12-20T02:26:42.990Z,17.31
2018-12-20T02:27:43.372Z,17.31
2018-12-20T02:28:43.679Z,17.31
2018-12-20T02:29:43.281Z,17.3
2018-12-20T02:30:44.017Z,17.3
2018-12-20T02:31:44.124Z,17.3
2018-12-20T02:32:43.771Z,17.29
2018-12-20T02:33:44.207Z,17.29
2018-12-20T02:34:43.544Z,17.29
2018-12-20T02:35:44.196Z,17.29
2018-12-20T02:36:43.218Z,17.29
2018-12-20T02:37:44.208Z,17.29
2018-12-20T02:38:43.758Z,17.29
2018-12-20T02:39:43.285Z,17.29
2018-12-20T02:40:43.681Z,17.29
2018-12-20T02:41:43.629Z,17.29
2018-12-20T02:42:43.402Z,17.28
2018-12-20T02:43:43.486Z,17.28
2018-12-20T02:44:43.746Z,17.28
2018-12-20T02:45:43.149Z,17.28
2018-12-20T02:46:43.316Z,17.27
2018-12-20T02:47:44.894Z,17.27
2018-12-20T02:48:42.922Z,17.27
2018-12-20T02:49:44.142Z,17.26
2018-12-20T02:50:43.915Z,17.26
2018-12-20T02:51:43.049Z,17.26
2018-12-20T02:52:43.982Z,17.26
2018-12-20T02:53:43.181Z,17.25
2018-12-20T02:54:43.465Z,17.25
2018-12-20T02:55:43.169Z,17.25
2018-12-20T02:56:43.416Z,17.25
2018-12-20T02:57:43.779Z,17.24
2018-12-20T02:58:44.033Z,17.24
2018-12-20T02:59:43.064Z,17.23
2018-12-20T03:00:43.527Z,17.23
2018-12-20T03:01:44.231Z,17.23
2018-12-20T03:02:44.085Z,17.23
2018-12-20T03:03:42.906Z,17.23
2018-12-20T03:04:43.747Z,17.22
2018-12-20T03:05:43.541Z,17.22
2018-12-20T03:06:43.010Z,17.23
2018-12-20T03:07:43.032Z,17.23
2018-12-20T03:08:43.511Z,17.23
2018-12-20T03:09:43.575Z,17.22
2018-12-20T03:10:43.629Z,17.21
2018-12-20T03:11:43.445Z,17.21
2018-12-20T03:12:42.965Z,17.2
2018-12-20T03:13:43.245Z,17.2
2018-12-20T03:14:43.349Z,17.2
2018-12-20T03:15:43.412Z,17.2
2018-12-20T03:16:43.740Z,17.2
2018-12-20T03:17:43.182Z,17.2
2018-12-20T03:18:43.557Z,17.19
2018-12-20T03:19:43.903Z,17.19
2018-12-20T03:20:43.978Z,17.18
2018-12-20T03:21:43.501Z,17.19
2018-12-20T03:22:43.560Z,17.18
2018-12-20T03:23:43.771Z,17.18
2018-12-20T03:24:43.369Z,17.18
2018-12-20T03:25:43.991Z,17.17
2018-12-20T03:26:43.794Z,17.17
2018-12-20T03:27:43.546Z,17.17
2018-12-20T03:28:43.723Z,17.17
2018-12-20T03:29:43.471Z,17.17
2018-12-20T03:30:43.850Z,17.17
2018-12-20T03:31:43.262Z,17.17
2018-12-20T03:32:44.863Z,17.17
2018-12-20T03:33:45.415Z,17.17
2018-12-20T03:34:43.483Z,17.16
2018-12-20T03:35:43.768Z,17.16
2018-12-20T03:36:43.494Z,17.16
2018-12-20T03:37:43.829Z,17.15
2018-12-20T03:38:44.420Z,17.16
2018-12-20T03:39:44.131Z,17.15
2018-12-20T03:40:43.403Z,17.14
2018-12-20T03:41:43.205Z,17.15
2018-12-20T03:42:43.811Z,17.15
2018-12-20T03:43:43.713Z,17.15
2018-12-20T03:44:43.439Z,17.15
2018-12-20T03:45:43.473Z,17.14
2018-12-20T03:46:42.852Z,17.14
2018-12-20T03:47:43.423Z,17.14
2018-12-20T03:48:43.542Z,17.13
2018-12-20T03:49:43.153Z,17.12
2018-12-20T03:50:43.310Z,17.13
2018-12-20T03:51:43.231Z,17.13
2018-12-20T03:52:43.792Z,17.14
2018-12-20T03:53:44.603Z,17.12
2018-12-20T03:54:43.588Z,17.12
2018-12-20T03:55:43.442Z,17.12
2018-12-20T03:56:43.498Z,17.12
2018-12-20T03:57:43.320Z,17.12
2018-12-20T03:58:43.513Z,17.12
2018-12-20T03:59:44.110Z,17.12
2018-12-20T04:00:43.747Z,17.11
2018-12-20T04:01:43.045Z,17.11
2018-12-20T04:02:43.540Z,17.12
2018-12-20T04:03:43.158Z,17.11
2018-12-20T04:04:44.224Z,17.11
2018-12-20T04:05:43.560Z,17.11
2018-12-20T04:06:43.313Z,17.11
2018-12-20T04:07:43.812Z,17.11
2018-12-20T04:08:43.309Z,17.11
2018-12-20T04:09:43.585Z,17.11
2018-12-20T04:10:44.147Z,17.1
2018-12-20T04:11:43.913Z,17.11
2018-12-20T04:12:42.993Z,17.1
2018-12-20T04:13:43.739Z,17.1
2018-12-20T04:14:44.240Z,17.09
2018-12-20T04:15:43.320Z,17.09
2018-12-20T04:16:43.232Z,17.09
2018-12-20T04:17:43.818Z,17.09
2018-12-20T04:18:43.504Z,17.08
2018-12-20T04:19:43.794Z,17.09
2018-12-20T04:20:43.994Z,17.09
2018-12-20T04:21:43.826Z,17.08
2018-12-20T04:22:43.587Z,17.08
2018-12-20T04:23:43.567Z,17.08
2018-12-20T04:24:43.629Z,17.08
2018-12-20T04:25:43.832Z,17.08
2018-12-20T04:26:42.863Z,17.07
2018-12-20T04:27:44.198Z,17.07
2018-12-20T04:28:43.847Z,17.07
2018-12-20T04:29:43.867Z,17.07
2018-12-20T04:30:43.789Z,17.06
2018-12-20T04:31:43.570Z,17.06
2018-12-20T04:32:43.699Z,17.06
2018-12-20T04:33:43.259Z,17.06
2018-12-20T04:34:43.511Z,17.06
2018-12-20T04:35:42.984Z,17.05
2018-12-20T04:36:43.375Z,17.05
2018-12-20T04:37:43.849Z,17.06
2018-12-20T04:38:43.570Z,17.06
2018-12-20T04:39:43.091Z,17.06
2018-12-20T04:40:43.813Z,17.08
2018-12-20T04:41:43.035Z,17.06
2018-12-20T04:42:43.565Z,17.07
2018-12-20T04:43:43.732Z,17.06
2018-12-20T04:44:44.013Z,17.06
2018-12-20T04:45:47.206Z,17.07
2018-12-20T04:46:43.140Z,17.08
2018-12-20T04:47:43.631Z,17.08
2018-12-20T04:48:43.209Z,17.1
2018-12-20T04:49:43.906Z,17.1
2018-12-20T04:50:43.475Z,17.11
2018-12-20T04:51:43.437Z,17.11
2018-12-20T04:52:43.258Z,17.11
2018-12-20T04:53:43.393Z,17.12
2018-12-20T04:54:43.069Z,17.13
2018-12-20T04:55:43.900Z,17.14
2018-12-20T04:56:43.454Z,17.16
2018-12-20T04:57:43.527Z,17.16
2018-12-20T04:58:44.308Z,17.17
2018-12-20T04:59:43.312Z,17.18
2018-12-20T05:00:42.869Z,17.19
2018-12-20T05:01:44.137Z,17.21
2018-12-20T05:02:43.939Z,17.23
2018-12-20T05:03:44.123Z,17.24
2018-12-20T05:04:43.601Z,17.25
2018-12-20T05:05:42.913Z,17.26
2018-12-20T05:06:44.006Z,17.28
2018-12-20T05:07:43.390Z,17.29
2018-12-20T05:08:43.603Z,17.29
2018-12-20T05:09:43.793Z,17.31
2018-12-20T05:10:43.445Z,17.32
2018-12-20T05:11:44.263Z,17.33
2018-12-20T05:12:43.408Z,17.35
2018-12-20T05:13:43.695Z,17.36
2018-12-20T05:14:43.849Z,17.37
2018-12-20T05:15:43.447Z,17.39
2018-12-20T05:16:43.448Z,17.41
2018-12-20T05:17:43.796Z,17.42
2018-12-20T05:18:43.581Z,17.44
2018-12-20T05:19:43.808Z,17.46
2018-12-20T05:20:43.898Z,17.48
2018-12-20T05:21:42.849Z,17.49
2018-12-20T05:22:43.600Z,17.51
2018-12-20T05:23:43.463Z,17.53
2018-12-20T05:24:43.868Z,17.54
2018-12-20T05:25:43.317Z,17.56
2018-12-20T05:26:44.323Z,17.58
2018-12-20T05:27:43.861Z,17.61
2018-12-20T05:28:44.132Z,17.62
2018-12-20T05:29:43.368Z,17.64
2018-12-20T05:30:43.660Z,17.65
2018-12-20T05:31:43.265Z,17.67
2018-12-20T05:32:43.104Z,17.68
2018-12-20T05:33:43.515Z,17.69
2018-12-20T05:34:43.367Z,17.7
2018-12-20T05:35:44.056Z,17.73
2018-12-20T05:36:44.232Z,17.74
2018-12-20T05:37:43.623Z,17.75
2018-12-20T05:38:43.920Z,17.77
2018-12-20T05:39:43.600Z,17.78
2018-12-20T05:40:43.480Z,17.79
2018-12-20T05:41:43.278Z,17.8
2018-12-20T05:42:43.550Z,17.82
2018-12-20T05:43:43.066Z,17.84
2018-12-20T05:44:44.102Z,17.85
2018-12-20T05:45:43.116Z,17.86
2018-12-20T05:46:43.557Z,17.86
2018-12-20T05:47:43.050Z,17.88
2018-12-20T05:48:43.121Z,17.91
2018-12-20T05:49:43.724Z,17.91
2018-12-20T05:50:44.167Z,17.92
2018-12-20T05:51:43.737Z,17.94
2018-12-20T05:52:42.980Z,17.96
2018-12-20T05:53:43.711Z,17.97
2018-12-20T05:54:43.865Z,17.98
2018-12-20T05:55:43.033Z,18
2018-12-20T05:56:43.691Z,18
2018-12-20T05:57:43.423Z,18.02
2018-12-20T05:58:45.262Z,18.03
2018-12-20T05:59:43.058Z,18.04
2018-12-20T06:00:43.481Z,18.04
2018-12-20T06:01:43.593Z,18.06
2018-12-20T06:02:43.051Z,18.07
2018-12-20T06:03:42.930Z,18.09
2018-12-20T06:04:43.642Z,18.1
2018-12-20T06:05:42.957Z,18.11
2018-12-20T06:06:44.007Z,18.12
2018-12-20T06:07:43.008Z,18.13
2018-12-20T06:08:43.012Z,18.15
2018-12-20T06:09:43.739Z,18.15
2018-12-20T06:10:43.504Z,18.17
2018-12-20T06:11:43.679Z,18.17
2018-12-20T06:12:43.502Z,18.19
2018-12-20T06:13:43.366Z,18.19
2018-12-20T06:14:43.157Z,18.21
2018-12-20T06:15:43.608Z,18.22
2018-12-20T06:16:42.882Z,18.23
2018-12-20T06:17:43.303Z,18.23
2018-12-20T06:18:43.261Z,18.25
2018-12-20T06:19:43.334Z,18.25
2018-12-20T06:20:43.156Z,18.26
2018-12-20T06:21:43.234Z,18.28
2018-12-20T06:22:42.804Z,18.29
2018-12-20T06:23:42.916Z,18.3
2018-12-20T06:24:42.925Z,18.31
2018-12-20T06:25:43.113Z,18.31
2018-12-20T06:26:42.816Z,18.32
2018-12-20T06:27:43.051Z,18.33
2018-12-20T06:28:42.821Z,18.34
2018-12-20T06:29:42.931Z,18.34
2018-12-20T06:30:42.799Z,18.34
2018-12-20T06:31:42.776Z,18.35
2018-12-20T06:32:43.081Z,18.36
2018-12-20T06:33:42.802Z,18.36
2018-12-20T06:34:42.977Z,18.36
2018-12-20T06:35:42.877Z,18.37
2018-12-20T06:36:43.036Z,18.39
2018-12-20T06:37:42.814Z,18.38
2018-12-20T06:38:43.026Z,18.39
2018-12-20T06:39:42.997Z,18.4
2018-12-20T06:40:42.906Z,18.41
2018-12-20T06:41:42.739Z,18.41
2018-12-20T06:42:42.975Z,18.41
2018-12-20T06:43:42.940Z,18.42
2018-12-20T06:44:42.966Z,18.42
2018-12-20T06:45:43.402Z,18.44
2018-12-20T06:46:42.923Z,18.44
2018-12-20T06:47:43.217Z,18.45
2018-12-20T06:48:43.218Z,18.46
2018-12-20T06:49:43.106Z,18.47
2018-12-20T06:50:43.136Z,18.47
2018-12-20T06:51:42.959Z,18.48
2018-12-20T06:52:43.009Z,18.49
2018-12-20T06:53:42.985Z,18.5
2018-12-20T06:54:42.913Z,18.51
2018-12-20T06:55:43.277Z,18.51
2018-12-20T06:56:42.954Z,18.52
2018-12-20T06:57:42.788Z,18.53
2018-12-20T06:58:43.082Z,18.54
2018-12-20T06:59:43.006Z,18.54
2018-12-20T07:00:43.138Z,18.55
2018-12-20T07:01:43.829Z,18.55
2018-12-20T07:02:43.281Z,18.57
2018-12-20T07:03:43.327Z,18.58
2018-12-20T07:04:43.548Z,18.58
2018-12-20T07:05:43.304Z,18.59
2018-12-20T07:06:43.132Z,18.59
2018-12-20T07:07:42.778Z,18.59
2018-12-20T07:08:43.049Z,18.6
2018-12-20T07:09:43.182Z,18.61
2018-12-20T07:10:43.676Z,18.61
2018-12-20T07:11:43.198Z,18.63
2018-12-20T07:12:43.035Z,18.64
2018-12-20T07:13:43.278Z,18.64
2018-12-20T07:14:43.102Z,18.64
2018-12-20T07:15:42.920Z,18.65
2018-12-20T07:16:42.704Z,18.65
2018-12-20T07:17:43.121Z,18.65
2018-12-20T07:18:43.862Z,18.55
2018-12-20T07:19:43.038Z,18.32
2018-12-20T07:20:42.890Z,18.32
2018-12-20T07:21:42.767Z,18.32
2018-12-20T07:22:43.092Z,18.37
2018-12-20T07:23:43.265Z,18.4
2018-12-20T07:24:42.807Z,18.42
2018-12-20T07:25:43.074Z,18.44
2018-12-20T07:26:43.101Z,18.46
2018-12-20T07:27:43.006Z,18.47
2018-12-20T07:28:42.930Z,18.48
2018-12-20T07:29:43.392Z,18.49
2018-12-20T07:30:43.051Z,18.5
2018-12-20T07:31:43.121Z,18.5
2018-12-20T07:32:43.438Z,18.51
2018-12-20T07:33:43.121Z,18.52
2018-12-20T07:34:48.319Z,18.52
2018-12-20T07:35:43.349Z,18.53
2018-12-20T07:36:42.870Z,18.53
2018-12-20T07:37:42.990Z,18.53
2018-12-20T07:38:42.774Z,18.54
2018-12-20T07:39:42.952Z,18.53
2018-12-20T07:40:42.982Z,18.53
2018-12-20T07:41:43.009Z,18.53
2018-12-20T07:42:42.787Z,18.53
2018-12-20T07:43:43.447Z,18.53
2018-12-20T07:44:42.747Z,18.52
2018-12-20T07:45:42.950Z,18.48
2018-12-20T07:46:43.461Z,18.46
2018-12-20T07:47:43.544Z,18.43
2018-12-20T07:48:43.817Z,18.44
2018-12-20T07:49:42.869Z,18.44
2018-12-20T07:50:43.043Z,18.45
2018-12-20T07:51:42.940Z,18.44
2018-12-20T07:52:43.084Z,18.45
2018-12-20T07:53:42.969Z,18.45
2018-12-20T07:54:42.963Z,18.45
2018-12-20T07:55:42.836Z,18.44
2018-12-20T07:56:42.981Z,18.44
2018-12-20T07:57:43.000Z,18.44
2018-12-20T07:58:42.764Z,18.43
2018-12-20T07:59:43.150Z,18.42
2018-12-20T08:00:42.664Z,18.42
2018-12-20T08:01:42.716Z,18.41
2018-12-20T08:02:43.224Z,18.41
2018-12-20T08:03:42.890Z,18.41
2018-12-20T08:04:43.177Z,18.41
2018-12-20T08:05:42.849Z,18.4
2018-12-20T08:06:42.965Z,18.4
2018-12-20T08:07:42.742Z,18.39
2018-12-20T08:08:43.389Z,18.38
2018-12-20T08:09:42.778Z,18.37
2018-12-20T08:10:42.821Z,18.37
2018-12-20T08:11:42.698Z,18.36
2018-12-20T08:12:42.822Z,18.35
2018-12-20T08:13:43.015Z,18.35
2018-12-20T08:14:42.769Z,18.34
2018-12-20T08:15:43.130Z,18.33
2018-12-20T08:16:46.562Z,18.32
2018-12-20T08:17:42.862Z,18.32
2018-12-20T08:18:42.840Z,18.31
2018-12-20T08:19:42.899Z,18.3
2018-12-20T08:20:43.048Z,18.3
2018-12-20T08:21:42.868Z,18.29
2018-12-20T08:22:42.932Z,18.29
2018-12-20T08:23:43.190Z,18.28
2018-12-20T08:24:43.205Z,18.27
2018-12-20T08:25:42.734Z,18.27
2018-12-20T08:26:43.435Z,18.27
2018-12-20T08:27:43.272Z,18.26
2018-12-20T08:28:43.053Z,18.25
2018-12-20T08:29:43.572Z,18.25
2018-12-20T08:30:42.864Z,18.24
2018-12-20T08:31:43.574Z,18.24
2018-12-20T08:32:43.045Z,18.23
2018-12-20T08:33:42.950Z,18.23
2018-12-20T08:34:43.569Z,18.22
2018-12-20T08:35:44.261Z,18.21
2018-12-20T08:36:44.449Z,18.21
2018-12-20T08:37:43.286Z,18.2
2018-12-20T08:38:43.012Z,18.19
2018-12-20T08:39:43.495Z,18.19
2018-12-20T08:40:43.259Z,18.23
2018-12-20T08:41:43.610Z,18.22
2018-12-20T08:42:43.998Z,18.21
2018-12-20T08:43:42.921Z,18.23
2018-12-20T08:44:42.917Z,18.23
2018-12-20T08:45:44.064Z,18.25
2018-12-20T08:46:42.972Z,18.26
2018-12-20T08:47:42.948Z,18.26
2018-12-20T08:48:43.265Z,18.29
2018-12-20T08:49:42.944Z,18.29
2018-12-20T08:50:43.327Z,18.31
2018-12-20T08:51:49.553Z,18.32
2018-12-20T08:52:42.914Z,18.34
2018-12-20T08:53:42.913Z,18.36
2018-12-20T08:54:43.103Z,18.37
2018-12-20T08:55:43.318Z,18.37
2018-12-20T08:56:43.148Z,18.41
2018-12-20T08:57:42.959Z,18.42
2018-12-20T08:58:43.178Z,18.45
2018-12-20T08:59:42.844Z,18.47
2018-12-20T09:00:42.803Z,18.48
2018-12-20T09:01:42.960Z,18.51
2018-12-20T09:02:43.045Z,18.52
2018-12-20T09:03:43.132Z,18.54
2018-12-20T09:04:42.824Z,18.56
2018-12-20T09:05:43.383Z,18.57
2018-12-20T09:06:42.778Z,18.59
2018-12-20T09:07:42.921Z,18.65
2018-12-20T09:08:42.774Z,18.63
2018-12-20T09:09:42.821Z,18.67
2018-12-20T09:10:42.915Z,18.66
2018-12-20T09:11:43.488Z,18.66
2018-12-20T09:12:42.930Z,18.67
2018-12-20T09:13:42.783Z,18.67
2018-12-20T09:14:42.935Z,18.69
2018-12-20T09:15:42.800Z,18.71
2018-12-20T09:16:42.809Z,18.72
2018-12-20T09:17:43.294Z,18.72
2018-12-20T09:18:43.276Z,18.73
2018-12-20T09:19:43.182Z,18.74
2018-12-20T09:20:43.400Z,18.76
2018-12-20T09:21:43.140Z,18.76
2018-12-20T09:22:42.998Z,18.76
2018-12-20T09:23:43.002Z,18.78
2018-12-20T09:24:42.777Z,18.77
2018-12-20T09:25:42.802Z,18.78
2018-12-20T09:26:42.802Z,18.79
2018-12-20T09:27:42.935Z,18.81
2018-12-20T09:28:43.178Z,18.81
2018-12-20T09:29:43.026Z,18.82
2018-12-20T09:30:43.858Z,18.84
2018-12-20T09:31:43.169Z,18.84
2018-12-20T09:32:42.832Z,18.86
2018-12-20T09:33:42.807Z,18.85
2018-12-20T09:34:43.172Z,18.85
2018-12-20T09:35:43.557Z,18.86
2018-12-20T09:36:42.818Z,18.86
2018-12-20T09:37:42.727Z,18.87
2018-12-20T09:38:42.990Z,18.89
2018-12-20T09:39:42.798Z,18.9
2018-12-20T09:40:42.848Z,18.9
2018-12-20T09:41:43.036Z,18.9
2018-12-20T09:42:43.226Z,18.9
2018-12-20T09:43:43.306Z,18.91
2018-12-20T09:44:43.099Z,18.92
2018-12-20T09:45:42.941Z,18.92
2018-12-20T09:46:42.793Z,18.93
2018-12-20T09:47:42.989Z,18.92
2018-12-20T09:48:42.813Z,18.93
2018-12-20T09:49:42.720Z,18.94
2018-12-20T09:50:42.818Z,18.95
2018-12-20T09:51:43.330Z,18.96
2018-12-20T09:52:42.851Z,18.95
2018-12-20T09:53:42.867Z,18.96
2018-12-20T09:54:42.762Z,18.97
2018-12-20T09:55:42.923Z,18.97
2018-12-20T09:56:43.047Z,18.98
2018-12-20T09:57:42.752Z,18.99
2018-12-20T09:58:43.020Z,18.98
2018-12-20T09:59:42.865Z,18.99
2018-12-20T10:00:42.975Z,19
2018-12-20T10:01:42.913Z,19
2018-12-20T10:02:43.190Z,19
2018-12-20T10:03:43.003Z,19.01
2018-12-20T10:04:42.880Z,19
2018-12-20T10:05:43.421Z,19.01
2018-12-20T10:06:43.143Z,19.02
2018-12-20T10:07:42.866Z,19.02
2018-12-20T10:08:42.801Z,19.02
2018-12-20T10:09:42.820Z,19.03
2018-12-20T10:10:43.639Z,19.03
2018-12-20T10:11:43.035Z,19.04
2018-12-20T10:12:43.056Z,19.03
2018-12-20T10:13:42.902Z,19.03
2018-12-20T10:14:43.072Z,19.03
2018-12-20T10:15:43.285Z,19.04
2018-12-20T10:16:43.089Z,19.04
2018-12-20T10:17:42.745Z,19.05
2018-12-20T10:18:43.197Z,19.06
2018-12-20T10:19:42.903Z,19.06
2018-12-20T10:20:42.957Z,19.06
2018-12-20T10:21:42.857Z,19.06
2018-12-20T10:22:42.946Z,19.06
2018-12-20T10:23:42.818Z,19.06
2018-12-20T10:24:42.887Z,19.08
2018-12-20T10:25:42.936Z,19.07
2018-12-20T10:26:43.466Z,19.08
2018-12-20T10:27:43.029Z,19.08
2018-12-20T10:28:42.768Z,19.08
2018-12-20T10:29:43.398Z,19.09
2018-12-20T10:30:42.992Z,19.09
2018-12-20T10:31:43.098Z,19.09
2018-12-20T10:32:43.014Z,19.09
2018-12-20T10:33:43.427Z,19.09
2018-12-20T10:34:43.628Z,19.07
2018-12-20T10:35:43.069Z,19.05
2018-12-20T10:36:42.693Z,19.07
2018-12-20T10:37:43.842Z,19.07
2018-12-20T10:38:44.029Z,19.09
2018-12-20T10:39:43.713Z,19.12
2018-12-20T10:40:43.556Z,19.12
2018-12-20T10:41:43.168Z,19.19
2018-12-20T10:42:44.048Z,19.15
2018-12-20T10:43:42.918Z,19.15
2018-12-20T10:44:42.909Z,19.15
2018-12-20T10:45:42.782Z,19.15
2018-12-20T10:46:44.399Z,19.16
2018-12-20T10:47:42.728Z,19.17
2018-12-20T10:48:42.840Z,19.17
2018-12-20T10:49:43.580Z,19.17
2018-12-20T10:50:43.231Z,19.17
2018-12-20T10:51:42.949Z,19.16
2018-12-20T10:52:43.435Z,19.16
2018-12-20T10:53:43.154Z,19.18
2018-12-20T10:54:43.144Z,19.17
2018-12-20T10:55:43.270Z,19.18
2018-12-20T10:56:42.804Z,19.17
2018-12-20T10:57:42.809Z,19.2
2018-12-20T10:58:42.893Z,19.19
2018-12-20T10:59:42.876Z,19.19
2018-12-20T11:00:43.224Z,19.21
2018-12-20T11:01:42.909Z,19.21
2018-12-20T11:02:42.844Z,19.2
2018-12-20T11:03:43.120Z,19.21
2018-12-20T11:04:42.837Z,19.21
2018-12-20T11:05:43.200Z,19.21
2018-12-20T11:06:43.577Z,19.21
2018-12-20T11:07:42.882Z,19.22
2018-12-20T11:08:43.168Z,19.23
2018-12-20T11:09:43.455Z,19.23
2018-12-20T11:10:42.754Z,19.22
2018-12-20T11:11:42.795Z,19.21
2018-12-20T11:12:42.718Z,19.2
2018-12-20T11:13:42.785Z,19.19
2018-12-20T11:14:43.524Z,19.18
2018-12-20T11:15:43.037Z,19.18
2018-12-20T11:16:42.830Z,19.17
2018-12-20T11:17:42.629Z,19.16
2018-12-20T11:18:42.918Z,19.17
2018-12-20T11:19:42.749Z,19.16
2018-12-20T11:20:42.775Z,19.16
2018-12-20T11:21:42.914Z,19.15
2018-12-20T11:22:42.792Z,19.15
2018-12-20T11:23:43.803Z,19.15
2018-12-20T11:24:43.078Z,19.15
2018-12-20T11:25:43.197Z,19.15
2018-12-20T11:26:43.497Z,19.14
2018-12-20T11:27:42.915Z,19.14
2018-12-20T11:28:42.992Z,19.14
2018-12-20T11:29:42.844Z,19.13
2018-12-20T11:30:42.829Z,19.13
2018-12-20T11:31:42.961Z,19.12
2018-12-20T11:32:42.947Z,19.12
2018-12-20T11:33:42.729Z,19.11
2018-12-20T11:34:42.858Z,19.11
2018-12-20T11:35:43.161Z,19.1
2018-12-20T11:36:43.259Z,19.11
2018-12-20T11:37:43.045Z,19.1
2018-12-20T11:38:42.780Z,19.1
2018-12-20T11:39:42.974Z,19.1
2018-12-20T11:40:43.062Z,19.1
2018-12-20T11:41:43.049Z,19.09
2018-12-20T11:42:43.475Z,19.09
2018-12-20T11:43:42.695Z,19.09
2018-12-20T11:44:42.930Z,19.09
2018-12-20T11:45:42.898Z,19.09
2018-12-20T11:46:42.875Z,19.09
2018-12-20T11:47:46.550Z,19.09
2018-12-20T11:48:43.023Z,19.09
2018-12-20T11:49:42.908Z,19.09
2018-12-20T11:50:43.057Z,19.08
2018-12-20T11:51:43.062Z,19.08
2018-12-20T11:52:42.821Z,19.08
2018-12-20T11:53:43.266Z,19.08
2018-12-20T11:54:42.811Z,19.08
2018-12-20T11:55:42.891Z,19.08
2018-12-20T11:56:42.792Z,19.08
2018-12-20T11:57:43.030Z,19.08
2018-12-20T11:58:43.094Z,19.09
2018-12-20T11:59:43.219Z,19.08
2018-12-20T12:00:43.165Z,19.08
2018-12-20T12:01:42.788Z,19.09
2018-12-20T12:02:43.177Z,19.09
2018-12-20T12:03:43.021Z,19.09
2018-12-20T12:04:43.257Z,19.08
2018-12-20T12:05:43.066Z,19.09
2018-12-20T12:06:43.251Z,19.09
2018-12-20T12:07:43.108Z,19.09
2018-12-20T12:08:42.841Z,19.09
2018-12-20T12:09:42.830Z,19.09
2018-12-20T12:10:43.178Z,19.08
2018-12-20T12:11:43.097Z,19.09
2018-12-20T12:12:42.924Z,19.09
2018-12-20T12:13:42.825Z,19.09
2018-12-20T12:14:43.355Z,19.09
2018-12-20T12:15:43.033Z,19.09
2018-12-20T12:16:43.790Z,19.09
2018-12-20T12:17:42.876Z,19.09
2018-12-20T12:18:43.459Z,19.09
2018-12-20T12:19:42.809Z,19.1
2018-12-20T12:20:43.386Z,19.11
2018-12-20T12:21:42.806Z,19.1
2018-12-20T12:22:42.728Z,19.1
2018-12-20T12:23:43.496Z,19.11
2018-12-20T12:24:42.822Z,19.09
2018-12-20T12:25:43.099Z,19.14
2018-12-20T12:26:42.909Z,19.13
2018-12-20T12:27:43.014Z,19.14
2018-12-20T12:28:43.019Z,19.14
2018-12-20T12:29:43.417Z,19.18
2018-12-20T12:30:42.606Z,19.2
2018-12-20T12:31:42.816Z,19.18
2018-12-20T12:32:43.209Z,19.18
2018-12-20T12:33:42.752Z,19.19
2018-12-20T12:34:43.094Z,19.2
2018-12-20T12:35:43.617Z,19.2
2018-12-20T12:36:42.882Z,19.21
2018-12-20T12:37:43.127Z,19.22
2018-12-20T12:38:42.884Z,19.23
2018-12-20T12:39:42.642Z,19.23
2018-12-20T12:40:43.112Z,19.23
2018-12-20T12:41:42.862Z,19.24
2018-12-20T12:42:43.161Z,19.25
2018-12-20T12:43:42.653Z,19.26
2018-12-20T12:44:42.828Z,19.26
2018-12-20T12:45:42.631Z,19.26
2018-12-20T12:46:43.151Z,19.27
2018-12-20T12:47:43.737Z,19.26
2018-12-20T12:48:42.978Z,19.27
2018-12-20T12:49:43.176Z,19.26
2018-12-20T12:50:42.870Z,19.27
2018-12-20T12:51:53.624Z,19.27
2018-12-20T12:52:43.502Z,19.27
2018-12-20T12:53:43.046Z,19.27
2018-12-20T12:54:42.992Z,19.26
2018-12-20T12:55:43.010Z,19.27